Time;durP1;ratioP1;P1;durP2;ratioP2;P2;SDS_P1;SDS_P2;PMS_P1;PMS_P2;Temp;Humidity;BMP_temperature;BMP_pressure;BME280_temperature;BME280_humidity;BME280_pressure;Samples;Min_cycle;Max_cycle;Signal;HPM_P1;HPM_P2
2023/06/21 00:00:30;;;;;;;7.07;2.67;;;;;;;22.62;71.24;99770.91;5039162;28;20052;-72
2023/06/21 00:02:59;;;;;;;6.50;2.53;;;;;;;22.57;71.48;99709.50;5039647;28;20030;-72
2023/06/21 00:05:25;;;;;;;6.35;2.40;;;;;;;22.50;71.50;99741.22;5039593;28;20408;-73
2023/06/21 00:07:53;;;;;;;11.90;2.80;;;;;;;22.34;72.26;99792.25;5039566;28;20029;-71
2023/06/21 00:10:23;;;;;;;7.55;2.70;;;;;;;22.16;72.68;99786.16;5039379;28;20040;-71
2023/06/21 00:12:49;;;;;;;9.48;3.05;;;;;;;22.07;73.20;99767.97;5032049;28;20478;-71
2023/06/21 00:15:15;;;;;;;8.23;2.60;;;;;;;22.12;73.05;99759.66;5002920;28;20095;-71
2023/06/21 00:17:40;;;;;;;8.68;2.33;;;;;;;22.14;73.10;99760.41;5039178;28;20113;-71
2023/06/21 00:20:09;;;;;;;7.50;2.90;;;;;;;22.06;72.80;99748.34;5039200;28;20144;-71
2023/06/21 00:22:35;;;;;;;7.43;2.95;;;;;;;22.05;73.41;99748.41;5039261;28;20074;-71
2023/06/21 00:25:01;;;;;;;6.82;2.65;;;;;;;22.08;72.70;99737.50;5038928;28;20064;-71
2023/06/21 00:27:26;;;;;;;7.67;2.70;;;;;;;22.12;72.76;99735.50;5039255;28;20470;-71
2023/06/21 00:29:51;;;;;;;8.37;3.00;;;;;;;22.16;72.67;99715.59;5038680;28;20030;-71
2023/06/21 00:32:17;;;;;;;6.83;2.33;;;;;;;22.22;72.68;99710.72;5039159;28;20209;-71
2023/06/21 00:34:44;;;;;;;8.30;2.80;;;;;;;22.27;72.59;99723.81;5038943;28;20034;-71
2023/06/21 00:37:11;;;;;;;6.88;2.60;;;;;;;22.28;72.49;99741.63;5038955;28;20037;-71
2023/06/21 00:39:37;;;;;;;6.05;2.22;;;;;;;22.29;72.32;99747.88;5038902;28;20090;-71
2023/06/21 00:42:02;;;;;;;7.75;2.38;;;;;;;22.33;72.53;99752.97;5038791;28;20033;-71
2023/06/21 00:44:28;;;;;;;6.57;2.60;;;;;;;22.34;72.26;99768.09;5038585;28;20045;-71
2023/06/21 00:46:53;;;;;;;6.70;2.50;;;;;;;22.37;72.47;99762.56;5038629;28;20432;-71
2023/06/21 00:49:19;;;;;;;6.33;2.40;;;;;;;22.42;72.35;99762.25;5038378;28;20363;-71
2023/06/21 00:51:45;;;;;;;6.77;2.43;;;;;;;22.45;72.48;99761.19;5038707;28;20343;-71
2023/06/21 00:54:16;;;;;;;5.35;2.20;;;;;;;22.46;72.45;99776.34;5020537;28;20033;-71
2023/06/21 00:56:45;;;;;;;6.87;2.77;;;;;;;22.44;72.20;99778.25;5038672;28;20113;-71
2023/06/21 00:59:11;;;;;;;5.93;2.40;;;;;;;22.44;72.33;99778.25;5020517;28;20090;-71
2023/06/21 01:01:37;;;;;;;8.23;2.35;;;;;;;22.45;72.31;99790.72;5038576;28;20089;-71
2023/06/21 01:04:04;;;;;;;7.10;2.30;;;;;;;22.45;72.39;99779.97;5038569;28;20021;-71
2023/06/21 01:06:41;;;;;;;8.10;2.58;;;;;;;22.44;72.40;99757.69;5038167;28;20029;-71
2023/06/21 01:09:28;;;;;;;9.25;2.97;;;;;;;22.40;72.69;99741.84;5038526;28;20032;-71
2023/06/21 01:12:01;;;;;;;8.70;3.08;;;;;;;22.38;72.79;99731.19;5038153;28;20033;-71
2023/06/21 01:15:01;;;;;;;6.97;2.88;;;;;;;22.34;73.49;99717.13;5028943;28;20101;-71
2023/06/21 01:17:31;;;;;;;8.63;3.30;;;;;;;22.29;73.00;99738.00;5026433;28;20044;-71
2023/06/21 01:19:57;;;;;;;7.65;3.28;;;;;;;22.25;72.80;99749.88;5038137;28;20108;-71
2023/06/21 01:22:22;;;;;;;8.45;3.58;;;;;;;22.19;73.18;99755.63;5038316;28;20116;-71
2023/06/21 01:25:06;;;;;;;9.73;3.73;;;;;;;22.13;73.58;99780.13;5020065;28;20517;-71
2023/06/21 01:27:43;;;;;;;8.07;3.60;;;;;;;22.07;73.92;99809.06;5038258;28;20029;-71
2023/06/21 01:30:11;;;;;;;10.60;3.60;;;;;;;22.10;73.63;99794.56;5037957;28;20037;-71
2023/06/21 01:32:37;;;;;;;9.63;4.10;;;;;;;22.11;73.91;99814.22;5020264;28;20029;-71
2023/06/21 01:35:04;;;;;;;8.30;3.22;;;;;;;22.08;74.00;99810.78;5037759;28;20124;-71
2023/06/21 01:37:30;;;;;;;9.82;3.40;;;;;;;22.05;74.11;99821.66;5039243;28;20123;-71
2023/06/21 01:39:55;;;;;;;7.77;3.40;;;;;;;22.06;74.17;99807.31;5037887;28;20033;-71
2023/06/21 01:42:21;;;;;;;9.83;3.63;;;;;;;22.08;73.95;99761.63;5037790;28;20260;-71
2023/06/21 01:44:48;;;;;;;9.47;3.60;;;;;;;22.12;73.64;99747.09;5019902;28;20030;-71
2023/06/21 01:47:14;;;;;;;9.23;4.15;;;;;;;22.14;73.97;99768.47;5037625;28;20025;-71
2023/06/21 01:49:40;;;;;;;13.32;4.18;;;;;;;22.12;74.15;99786.47;5037668;28;20124;-71
2023/06/21 01:52:07;;;;;;;8.63;4.07;;;;;;;22.12;74.17;99789.13;5037660;28;20072;-71
2023/06/21 01:54:34;;;;;;;9.68;4.10;;;;;;;22.15;73.70;99788.94;5037473;28;20029;-71
2023/06/21 01:57:00;;;;;;;7.63;3.92;;;;;;;22.22;73.78;99790.28;5037227;28;20029;-71
2023/06/21 01:59:30;;;;;;;9.57;3.78;;;;;;;22.26;73.65;99780.25;5037248;28;20021;-71
2023/06/21 02:01:59;;;;;;;10.80;4.03;;;;;;;22.30;73.63;99781.78;5036912;28;20163;-71
2023/06/21 02:04:26;;;;;;;14.40;3.83;;;;;;;22.31;73.46;99781.72;5037367;28;20037;-71
2023/06/21 02:06:53;;;;;;;10.15;3.88;;;;;;;22.31;73.55;99789.75;5037127;28;20064;-71
2023/06/21 02:09:20;;;;;;;8.50;3.78;;;;;;;22.30;73.63;99795.19;5037489;28;20375;-71
2023/06/21 02:11:45;;;;;;;11.35;4.63;;;;;;;22.28;74.01;99799.81;5019508;28;20057;-71
2023/06/21 02:14:11;;;;;;;11.63;4.70;;;;;;;22.25;74.06;99795.47;5027026;28;20025;-71
2023/06/21 02:16:36;;;;;;;8.73;4.55;;;;;;;22.25;74.09;99794.63;5019319;28;20041;-71
2023/06/21 02:19:02;;;;;;;11.73;4.80;;;;;;;22.26;74.02;99797.19;5036846;28;20032;-71
2023/06/21 02:21:27;;;;;;;12.00;4.77;;;;;;;22.24;73.97;99804.47;5037018;28;20048;-71
2023/06/21 02:23:53;;;;;;;8.17;4.60;;;;;;;22.22;74.17;99809.06;5037221;28;20029;-71
2023/06/21 02:26:18;;;;;;;9.73;4.28;;;;;;;22.23;74.26;99818.84;5036952;28;20021;-71
2023/06/21 02:28:47;;;;;;;9.87;5.00;;;;;;;22.25;74.08;99816.06;5037024;28;20033;-71
2023/06/21 02:31:12;;;;;;;11.65;4.35;;;;;;;22.28;73.87;99814.06;5036565;28;20109;-71
2023/06/21 02:33:41;;;;;;;9.07;4.23;;;;;;;22.30;73.91;99812.13;5037183;28;20034;-71
2023/06/21 02:36:07;;;;;;;9.85;3.95;;;;;;;22.30;73.67;99814.81;5037680;28;20024;-71
2023/06/21 02:38:32;;;;;;;8.37;3.93;;;;;;;22.34;73.83;99810.16;5036865;28;20032;-71
2023/06/21 02:40:58;;;;;;;9.73;4.32;;;;;;;22.37;73.98;99796.53;5036576;28;20029;-71
2023/06/21 02:43:23;;;;;;;9.73;4.00;;;;;;;22.42;73.57;99804.31;5036995;28;20051;-71
2023/06/21 02:45:49;;;;;;;8.53;3.77;;;;;;;22.44;73.56;99800.59;5036508;28;20037;-71
2023/06/21 02:48:14;;;;;;;8.02;4.18;;;;;;;22.45;73.79;99812.19;5036759;28;20077;-71
2023/06/21 02:50:40;;;;;;;10.90;4.20;;;;;;;22.44;73.60;99811.34;5018950;28;20037;-71
2023/06/21 02:53:06;;;;;;;11.77;3.95;;;;;;;22.47;73.77;99810.28;5036716;28;20029;-71
2023/06/21 02:55:31;;;;;;;8.07;3.80;;;;;;;22.46;73.45;99820.19;5036749;28;20045;-71
2023/06/21 02:57:57;;;;;;;10.13;3.87;;;;;;;22.47;73.58;99818.34;5018867;28;20086;-71
2023/06/21 03:00:23;;;;;;;9.67;3.90;;;;;;;22.49;73.54;99813.75;5036126;28;20326;-71
2023/06/21 03:02:49;;;;;;;8.47;3.87;;;;;;;22.52;73.33;99835.00;5036765;28;20029;-71
2023/06/21 03:05:15;;;;;;;9.13;3.92;;;;;;;22.52;73.37;99824.28;5036548;28;20037;-71
2023/06/21 03:07:49;;;;;;;7.75;3.85;;;;;;;22.50;73.21;99815.47;5036624;28;20386;-71
2023/06/21 03:10:15;;;;;;;8.52;3.75;;;;;;;22.47;73.34;99815.66;5036770;28;20474;-71
2023/06/21 03:12:41;;;;;;;8.87;3.93;;;;;;;22.49;73.36;99813.75;5012844;28;20053;-71
2023/06/21 03:15:08;;;;;;;9.95;4.28;;;;;;;22.49;73.24;99819.09;5033999;28;20983;-71
2023/06/21 03:17:34;;;;;;;10.17;4.23;;;;;;;22.48;73.25;99812.03;5040280;28;20034;-71
2023/06/21 03:19:59;;;;;;;9.48;3.92;;;;;;;22.48;73.49;99806.66;5040549;28;20044;-71
2023/06/21 03:22:25;;;;;;;8.63;4.10;;;;;;;22.48;73.55;99801.28;5040448;28;20034;-71
2023/06/21 03:24:50;;;;;;;11.07;4.20;;;;;;;22.45;73.42;99802.31;5022814;28;20394;-71
2023/06/21 03:27:15;;;;;;;9.57;3.90;;;;;;;22.44;73.52;99805.09;5040344;28;20027;-71
2023/06/21 03:29:41;;;;;;;8.73;4.27;;;;;;;22.42;73.45;99805.16;5022408;28;20033;-71
2023/06/21 03:32:06;;;;;;;11.43;4.73;;;;;;;22.44;73.75;99831.91;5040232;28;20321;-71
2023/06/21 03:34:32;;;;;;;11.88;4.80;;;;;;;22.43;73.71;99830.19;5040401;28;20025;-71
2023/06/21 03:36:57;;;;;;;12.80;4.73;;;;;;;22.45;73.93;99828.28;5041577;28;20152;-71
2023/06/21 03:39:23;;;;;;;12.63;5.60;;;;;;;22.44;73.71;99834.59;5039820;28;20159;-71
2023/06/21 03:41:48;;;;;;;14.60;6.00;;;;;;;22.42;73.46;99833.84;5039985;28;20035;-71
2023/06/21 03:44:14;;;;;;;10.50;5.70;;;;;;;22.41;73.91;99830.28;5039903;28;20091;-71
2023/06/21 03:46:39;;;;;;;10.87;5.17;;;;;;;22.42;73.69;99836.50;5039879;28;20049;-71
2023/06/21 03:49:05;;;;;;;13.60;5.23;;;;;;;22.41;73.76;99832.09;5039607;28;20050;-71
2023/06/21 03:51:30;;;;;;;11.68;5.32;;;;;;;22.37;73.77;99840.34;5040089;28;20029;-71
2023/06/21 03:53:56;;;;;;;10.10;4.47;;;;;;;22.34;73.78;99845.91;5039728;28;20033;-71
2023/06/21 03:56:22;;;;;;;10.98;4.85;;;;;;;22.32;73.82;99845.13;5039689;28;20037;-71
2023/06/21 03:58:47;;;;;;;10.03;4.33;;;;;;;22.33;73.84;99837.94;5039633;28;20040;-71
2023/06/21 04:01:13;;;;;;;11.23;4.43;;;;;;;22.32;73.84;99839.75;5039518;28;20038;-71
2023/06/21 04:03:38;;;;;;;9.50;4.80;;;;;;;22.29;73.69;99845.28;5021772;28;20108;-71
2023/06/21 04:06:03;;;;;;;9.50;4.07;;;;;;;22.27;73.68;99847.19;5039927;28;20026;-71
2023/06/21 04:08:29;;;;;;;11.07;4.70;;;;;;;22.24;73.71;99836.66;5039563;28;20029;-71
2023/06/21 04:10:55;;;;;;;9.83;4.33;;;;;;;22.19;73.60;99820.88;5039518;28;20263;-71
2023/06/21 04:13:21;;;;;;;9.80;4.32;;;;;;;22.16;73.80;99823.69;5021883;28;20032;-71
2023/06/21 04:15:46;;;;;;;11.70;4.60;;;;;;;22.16;73.84;99836.25;5021573;28;20481;-71
2023/06/21 04:18:12;;;;;;;10.73;4.50;;;;;;;22.15;74.15;99840.75;5019582;28;20037;-71
2023/06/21 04:20:37;;;;;;;10.57;4.70;;;;;;;22.14;73.92;99838.19;5039538;28;20115;-71
2023/06/21 04:23:03;;;;;;;11.50;5.10;;;;;;;22.11;73.65;99846.41;5039249;28;20030;-71
2023/06/21 04:25:28;;;;;;;12.97;5.47;;;;;;;22.11;73.78;99846.41;5038633;28;20310;-71
2023/06/21 04:27:54;;;;;;;11.03;4.60;;;;;;;22.12;73.97;99853.50;5039202;28;20025;-71
2023/06/21 04:30:19;;;;;;;8.88;4.70;;;;;;;22.14;73.89;99862.31;5021232;28;20037;-71
2023/06/21 04:32:45;;;;;;;13.67;5.23;;;;;;;22.12;74.06;99858.84;5039393;28;20033;-71
2023/06/21 04:35:18;;;;;;;10.83;5.30;;;;;;;22.14;73.93;99856.94;5039279;28;20029;-71
2023/06/21 04:37:45;;;;;;;12.20;5.43;;;;;;;22.16;73.84;99861.25;5022067;28;20025;-71
2023/06/21 04:40:17;;;;;;;11.02;5.45;;;;;;;22.17;74.11;99859.44;5038998;28;20064;-71
2023/06/21 04:42:45;;;;;;;10.95;5.57;;;;;;;22.16;73.97;99863.94;5038886;28;20040;-71
2023/06/21 04:45:15;;;;;;;11.80;5.60;;;;;;;22.14;74.04;99862.31;5038909;28;20042;-71
2023/06/21 04:47:42;;;;;;;14.13;5.97;;;;;;;22.14;74.40;99863.16;5038701;28;20095;-71
2023/06/21 04:50:10;;;;;;;11.90;5.00;;;;;;;22.14;73.92;99863.16;5038830;28;20116;-71
2023/06/21 04:52:37;;;;;;;11.25;5.30;;;;;;;22.13;74.10;99852.53;5038588;28;20037;-70
2023/06/21 04:55:06;;;;;;;11.07;5.47;;;;;;;22.12;74.04;99850.81;5038542;28;20033;-70
2023/06/21 04:57:32;;;;;;;12.20;5.27;;;;;;;22.12;74.21;99853.50;5021370;28;20037;-71
2023/06/21 04:59:58;;;;;;;12.18;5.60;;;;;;;22.11;74.27;99847.25;5038465;28;20025;-71
2023/06/21 05:02:24;;;;;;;14.93;5.70;;;;;;;22.12;74.10;99854.34;5038428;28;20095;-71
2023/06/21 05:04:50;;;;;;;14.03;5.47;;;;;;;22.11;74.36;99847.25;5020819;28;20276;-71
2023/06/21 05:07:15;;;;;;;11.65;5.80;;;;;;;22.12;74.07;99840.09;5038402;28;20392;-71
2023/06/21 05:09:41;;;;;;;10.27;5.23;;;;;;;22.10;73.97;99848.22;5038517;28;20029;-71
2023/06/21 05:12:08;;;;;;;11.93;5.50;;;;;;;22.08;74.21;99845.63;5038149;28;20048;-71
2023/06/21 05:14:34;;;;;;;11.85;5.82;;;;;;;22.08;74.43;99839.41;5038276;28;20037;-70
2023/06/21 05:16:59;;;;;;;13.43;5.70;;;;;;;22.07;74.43;99838.53;5037847;28;20033;-71
2023/06/21 05:19:25;;;;;;;10.53;5.47;;;;;;;22.09;74.50;99843.81;5020423;28;20390;-71
2023/06/21 05:21:50;;;;;;;13.15;5.85;;;;;;;22.08;74.30;99869.78;5038050;28;20036;-70
2023/06/21 05:24:15;;;;;;;13.03;6.63;;;;;;;22.03;74.51;99869.16;5038403;28;20035;-71
2023/06/21 05:26:44;;;;;;;15.20;6.03;;;;;;;21.98;74.72;99863.19;5037829;28;20033;-71
2023/06/21 05:29:13;;;;;;;11.73;5.65;;;;;;;22.00;74.50;99855.94;5038124;28;20041;-71
2023/06/21 05:31:42;;;;;;;14.32;6.40;;;;;;;22.00;74.56;99861.28;5037941;28;20044;-71
2023/06/21 05:34:08;;;;;;;13.87;5.63;;;;;;;22.00;74.49;99863.97;5038244;28;20063;-71
2023/06/21 05:36:33;;;;;;;12.10;6.05;;;;;;;21.99;74.97;99864.94;5038714;28;20095;-71
2023/06/21 05:38:59;;;;;;;15.97;5.97;;;;;;;22.01;74.79;99862.16;5037418;28;20057;-71
2023/06/21 05:41:24;;;;;;;10.70;5.60;;;;;;;22.04;74.48;99873.56;5019666;28;20056;-71
2023/06/21 05:43:50;;;;;;;14.00;6.07;;;;;;;22.05;74.83;99875.28;5038081;28;20033;-71
2023/06/21 05:46:15;;;;;;;13.00;6.60;;;;;;;22.05;74.67;99885.16;5037462;28;20034;-71
2023/06/21 05:48:40;;;;;;;11.73;5.97;;;;;;;22.04;74.86;99878.91;5037183;28;20033;-71
2023/06/21 05:51:06;;;;;;;15.10;6.90;;;;;;;22.02;74.62;99885.34;5037583;28;20029;-71
2023/06/21 05:53:31;;;;;;;15.77;6.40;;;;;;;21.98;74.75;99884.66;5037761;28;20057;-70
2023/06/21 05:55:57;;;;;;;12.47;6.10;;;;;;;21.93;74.89;99889.41;5037349;28;20021;-70
2023/06/21 05:58:22;;;;;;;13.23;6.57;;;;;;;21.91;75.22;99891.31;5037456;28;20280;-70
2023/06/21 06:00:48;;;;;;;17.17;6.80;;;;;;;21.89;75.40;99887.88;5030759;28;20091;-70
2023/06/21 06:03:14;;;;;;;14.77;6.10;;;;;;;21.86;75.48;99890.72;5030551;28;20477;-69
2023/06/21 06:05:39;;;;;;;14.77;6.37;;;;;;;21.85;75.67;99894.38;5037583;28;20408;-69
2023/06/21 06:08:05;;;;;;;14.67;6.83;;;;;;;21.84;75.38;99882.75;5037418;28;20486;-70
2023/06/21 06:10:30;;;;;;;16.35;6.85;;;;;;;21.84;75.58;99884.59;5036922;28;20031;-70
2023/06/21 06:12:56;;;;;;;16.27;6.50;;;;;;;21.86;75.25;99880.84;5033519;28;20037;-70
2023/06/21 06:15:21;;;;;;;18.10;6.87;;;;;;;21.89;75.63;99874.47;5036870;28;20470;-70
2023/06/21 06:17:46;;;;;;;14.80;6.93;;;;;;;21.89;75.79;99861.06;5037061;28;20033;-70
2023/06/21 06:20:12;;;;;;;12.43;6.47;;;;;;;21.92;75.57;99864.41;5037012;28;20022;-70
2023/06/21 06:22:39;;;;;;;14.17;7.07;;;;;;;21.96;75.27;99870.47;5036881;28;20096;-71
2023/06/21 06:25:05;;;;;;;16.33;7.40;;;;;;;22.01;75.27;99872.91;5019420;28;20029;-71
2023/06/21 06:27:31;;;;;;;14.45;6.07;;;;;;;22.02;75.08;99880.81;5036927;28;20038;-71
2023/06/21 06:29:56;;;;;;;12.37;6.37;;;;;;;22.04;75.21;99878.91;5018864;28;20031;-70
2023/06/21 06:32:22;;;;;;;14.73;6.85;;;;;;;22.05;74.89;99875.28;5018934;28;20025;-70
2023/06/21 06:34:47;;;;;;;15.27;6.50;;;;;;;22.03;75.19;99874.50;5037165;28;20029;-70
2023/06/21 06:37:13;;;;;;;14.50;7.22;;;;;;;22.05;75.20;99871.75;5020492;28;20461;-71
2023/06/21 06:39:38;;;;;;;15.33;6.97;;;;;;;22.06;75.47;99860.97;5019007;28;20041;-70
2023/06/21 06:42:04;;;;;;;16.57;7.37;;;;;;;22.10;75.32;99861.63;5033496;28;20037;-71
2023/06/21 06:44:30;;;;;;;107.07;15.88;;;;;;;22.12;74.97;99864.22;5036239;28;20029;-71
2023/06/21 06:46:55;;;;;;;104.10;15.57;;;;;;;22.12;75.09;99858.84;5033547;28;20061;-71
2023/06/21 06:49:20;;;;;;;22.13;7.87;;;;;;;22.13;74.88;99858.75;5033964;28;20061;-71
2023/06/21 06:51:46;;;;;;;15.70;7.63;;;;;;;22.16;74.88;99849.66;5036416;28;20033;-71
2023/06/21 06:54:11;;;;;;;33.17;9.00;;;;;;;22.18;75.15;99847.75;5018954;28;20037;-71
2023/06/21 06:56:37;;;;;;;73.73;14.43;;;;;;;22.19;75.08;99854.84;5036715;28;20060;-71
2023/06/21 06:59:03;;;;;;;26.80;8.90;;;;;;;22.22;75.22;99841.25;5036367;28;20026;-71
2023/06/21 07:01:28;;;;;;;21.70;10.25;;;;;;;22.28;75.19;99842.72;5018937;28;20033;-71
2023/06/21 07:03:54;;;;;;;67.20;14.27;;;;;;;22.35;75.09;99833.34;5036571;28;20037;-71
2023/06/21 07:06:20;;;;;;;22.08;8.23;;;;;;;22.42;74.87;99823.09;5037020;28;20393;-71
2023/06/21 07:08:46;;;;;;;17.73;8.50;;;;;;;22.51;74.81;99831.50;5036433;28;20030;-71
2023/06/21 07:11:12;;;;;;;16.55;8.60;;;;;;;22.59;74.38;99824.78;5027371;28;20034;-71
2023/06/21 07:13:38;;;;;;;17.10;8.05;;;;;;;22.65;74.36;99813.66;5033606;28;20087;-71
2023/06/21 07:16:03;;;;;;;15.17;8.57;;;;;;;22.71;74.37;99818.66;5030738;28;20401;-71
2023/06/21 07:18:29;;;;;;;18.17;8.73;;;;;;;22.78;74.16;99822.69;5036030;28;20437;-71
2023/06/21 07:20:54;;;;;;;21.10;8.27;;;;;;;22.85;74.26;99824.97;5036593;28;20271;-71
2023/06/21 07:23:20;;;;;;;45.70;12.17;;;;;;;22.90;74.10;99821.06;5036456;28;20083;-71
2023/06/21 07:25:45;;;;;;;17.40;8.50;;;;;;;22.95;74.23;99826.16;5036574;28;20036;-71
2023/06/21 07:28:11;;;;;;;19.90;8.98;;;;;;;23.03;73.94;99821.13;5018674;28;20025;-71
2023/06/21 07:30:37;;;;;;;28.47;9.00;;;;;;;23.07;73.77;99824.50;5034661;28;20033;-72
2023/06/21 07:33:03;;;;;;;18.98;9.57;;;;;;;23.15;73.60;99827.56;5035433;28;20068;-71
2023/06/21 07:35:29;;;;;;;15.47;8.40;;;;;;;23.19;73.26;99828.22;5036621;28;20044;-71
2023/06/21 07:37:54;;;;;;;19.75;8.50;;;;;;;23.23;73.42;99819.00;5037324;28;20041;-71
2023/06/21 07:40:20;;;;;;;17.80;9.37;;;;;;;23.29;73.28;99821.31;5017742;28;20063;-72
2023/06/21 07:42:45;;;;;;;17.70;9.20;;;;;;;23.35;73.31;99803.94;5041453;28;20036;-71
2023/06/21 07:45:11;;;;;;;72.00;13.90;;;;;;;23.37;73.43;99799.34;5038552;28;20040;-71
2023/06/21 07:47:37;;;;;;;25.53;10.00;;;;;;;23.42;73.40;99796.38;5048580;28;20049;-71
2023/06/21 07:50:03;;;;;;;21.33;9.77;;;;;;;23.43;73.19;99787.34;5043206;28;20071;-71
2023/06/21 07:52:29;;;;;;;17.63;9.52;;;;;;;23.43;73.16;99798.09;5024939;28;20037;-71
2023/06/21 07:54:54;;;;;;;24.60;10.47;;;;;;;23.46;73.20;99800.56;5036291;28;20033;-71
2023/06/21 07:57:20;;;;;;;24.10;10.87;;;;;;;23.47;73.13;99813.88;5019138;28;20028;-71
2023/06/21 07:59:46;;;;;;;23.83;10.02;;;;;;;23.55;72.88;99807.16;5043914;28;20025;-72
2023/06/21 08:02:17;;;;;;;22.83;10.57;;;;;;;23.69;73.12;99808.94;5042911;28;20033;-72
2023/06/21 08:04:43;;;;;;;20.67;9.40;;;;;;;23.82;72.65;99803.59;5030325;28;20028;-72
2023/06/21 08:07:08;;;;;;;20.95;10.50;;;;;;;23.87;72.17;99794.28;5050059;28;20021;-71
2023/06/21 08:09:34;;;;;;;21.00;10.10;;;;;;;23.91;72.05;99800.28;5044307;28;20029;-70
2023/06/21 08:12:00;;;;;;;21.17;11.05;;;;;;;23.89;71.95;99812.97;5043016;28;20029;-72
2023/06/21 08:14:26;;;;;;;23.50;10.33;;;;;;;23.83;72.38;99833.06;5045276;28;20067;-72
2023/06/21 08:16:51;;;;;;;21.42;10.57;;;;;;;23.77;71.98;99828.97;5044816;28;20540;-71
2023/06/21 08:19:17;;;;;;;53.40;12.15;;;;;;;23.74;72.74;99831.84;5033999;28;20022;-71
2023/06/21 08:21:42;;;;;;;22.23;10.97;;;;;;;23.79;72.59;99827.03;5049890;28;20035;-71
2023/06/21 08:24:08;;;;;;;24.00;11.33;;;;;;;23.87;72.38;99817.59;5035964;28;20029;-71
2023/06/21 08:26:33;;;;;;;22.13;11.17;;;;;;;23.94;72.35;99819.78;5035701;28;20021;-71
2023/06/21 08:28:59;;;;;;;21.40;11.25;;;;;;;24.01;72.05;99814.88;5054721;28;20017;-71
2023/06/21 08:31:24;;;;;;;20.47;10.10;;;;;;;24.07;72.35;99824.34;5045648;28;20026;-71
2023/06/21 08:33:50;;;;;;;28.03;10.40;;;;;;;24.15;72.25;99821.13;5042347;28;20067;-71
2023/06/21 08:36:15;;;;;;;21.83;10.45;;;;;;;24.20;72.01;99832.44;5022419;28;20037;-71
2023/06/21 08:38:40;;;;;;;21.77;10.27;;;;;;;24.21;71.96;99842.22;5052646;28;20062;-71
2023/06/21 08:41:07;;;;;;;17.33;9.47;;;;;;;24.21;71.67;99844.91;5041985;28;20482;-73
2023/06/21 08:43:32;;;;;;;21.95;10.00;;;;;;;24.23;71.81;99851.06;5039434;28;20032;-69
2023/06/21 08:46:03;;;;;;;23.27;11.57;;;;;;;24.22;72.08;99870.84;5049491;28;20033;-69
2023/06/21 08:48:31;;;;;;;22.10;10.00;;;;;;;24.20;71.94;99878.16;5030617;28;20049;-69
2023/06/21 08:50:59;;;;;;;21.88;10.38;;;;;;;24.13;72.27;99883.13;5042873;28;20033;-70
2023/06/21 08:53:47;;;;;;;23.50;9.85;;;;;;;24.06;72.42;99882.66;5030448;28;20072;-70
2023/06/21 08:56:19;;;;;;;22.50;10.00;;;;;;;24.11;72.63;99878.78;5041151;28;20045;-70
2023/06/21 08:58:51;;;;;;;21.02;9.93;;;;;;;24.12;72.31;99880.53;5042586;28;20108;-69
2023/06/21 09:01:21;;;;;;;23.65;10.48;;;;;;;24.11;72.76;99879.63;5047026;28;20128;-70
2023/06/21 09:03:57;;;;;;;20.85;9.85;;;;;;;24.05;72.53;99886.31;5051834;28;20034;-71
2023/06/21 09:06:24;;;;;;;22.17;10.35;;;;;;;24.02;72.70;99891.91;5035285;28;20038;-71
2023/06/21 09:08:52;;;;;;;19.80;10.20;;;;;;;23.98;72.73;99890.31;5028183;28;20026;-71
2023/06/21 09:11:20;;;;;;;22.60;9.90;;;;;;;23.95;73.14;99885.16;5038168;28;20044;-71
2023/06/21 09:13:47;;;;;;;22.58;9.95;;;;;;;23.92;72.95;99882.66;5028083;28;20061;-71
2023/06/21 09:16:13;;;;;;;21.92;10.15;;;;;;;23.87;73.22;99883.00;5038106;28;20032;-71
2023/06/21 09:18:39;;;;;;;23.03;10.10;;;;;;;23.86;73.03;99892.00;5037767;28;20112;-71
2023/06/21 09:21:08;;;;;;;24.98;10.25;;;;;;;23.84;73.39;99895.78;5020291;28;20029;-71
2023/06/21 09:23:34;;;;;;;22.10;10.02;;;;;;;23.80;73.50;99900.47;5036513;28;20060;-71
2023/06/21 09:25:59;;;;;;;25.53;9.90;;;;;;;23.73;73.49;99897.31;5038096;28;20034;-71
2023/06/21 09:28:25;;;;;;;21.67;9.13;;;;;;;23.69;73.69;99893.13;5037979;28;20482;-71
2023/06/21 09:30:50;;;;;;;18.42;8.93;;;;;;;23.67;73.72;99886.13;5037661;28;20021;-71
2023/06/21 09:33:16;;;;;;;20.97;9.27;;;;;;;23.67;73.88;99891.50;5037624;28;20025;-71
2023/06/21 09:35:42;;;;;;;19.53;10.10;;;;;;;23.68;73.87;99893.22;5038003;28;20033;-70
2023/06/21 09:38:26;;;;;;;23.73;9.73;;;;;;;23.63;73.90;99888.16;5038595;28;20037;-71
2023/06/21 09:40:51;;;;;;;21.75;9.18;;;;;;;23.66;73.97;99882.56;5039954;28;20032;-72
2023/06/21 09:43:19;;;;;;;23.80;10.73;;;;;;;23.66;74.26;99882.56;5037711;28;20030;-71
2023/06/21 09:46:08;;;;;;;19.85;10.75;;;;;;;23.62;74.37;99884.56;5037407;28;20026;-72
2023/06/21 09:48:35;;;;;;;25.65;11.38;;;;;;;23.64;74.22;99881.81;5032022;28;20045;-72
2023/06/21 09:51:02;;;;;;;26.35;11.02;;;;;;;23.63;74.58;99889.03;5037208;28;20034;-72
2023/06/21 09:53:28;;;;;;;23.95;11.80;;;;;;;23.62;74.45;99883.72;5037311;28;20036;-72
2023/06/21 09:55:55;;;;;;;26.00;11.70;;;;;;;23.61;74.42;99887.38;5037225;28;20025;-72
2023/06/21 09:58:21;;;;;;;27.33;11.93;;;;;;;23.62;74.69;99889.94;5037256;28;20104;-72
2023/06/21 10:00:47;;;;;;;26.83;12.13;;;;;;;23.65;74.75;99883.53;5035835;28;20064;-72
2023/06/21 10:03:13;;;;;;;20.73;10.18;;;;;;;23.68;74.58;99877.09;5037311;28;20021;-72
2023/06/21 10:05:55;;;;;;;25.02;11.07;;;;;;;23.68;74.46;99871.72;5037155;28;20029;-72
2023/06/21 10:08:29;;;;;;;22.63;10.00;;;;;;;23.72;74.54;99862.50;5037630;28;20029;-73
2023/06/21 10:10:55;;;;;;;24.17;10.27;;;;;;;23.76;74.39;99870.25;5019363;28;20025;-73
2023/06/21 10:13:28;;;;;;;19.83;9.30;;;;;;;23.78;74.76;99875.53;5037371;28;20041;-72
2023/06/21 10:15:56;;;;;;;17.85;9.70;;;;;;;23.79;74.35;99874.56;5019238;28;20053;-73
2023/06/21 10:18:22;;;;;;;21.38;9.25;;;;;;;23.76;74.48;99881.03;5018304;28;20030;-73
2023/06/21 10:20:57;;;;;;;22.20;8.83;;;;;;;23.71;74.22;99877.75;5037326;28;20026;-72
2023/06/21 10:23:27;;;;;;;20.30;8.65;;;;;;;23.69;74.56;99871.59;5036160;28;20026;-73
2023/06/21 10:25:55;;;;;;;19.42;8.23;;;;;;;23.69;74.52;99874.28;5024901;28;20512;-71
2023/06/21 10:28:22;;;;;;;23.08;9.00;;;;;;;23.69;74.29;99868.91;5032407;28;20473;-73
2023/06/21 10:30:53;;;;;;;17.33;9.52;;;;;;;23.70;74.33;99869.78;5041297;28;20366;-72
2023/06/21 10:33:20;;;;;;;18.77;8.83;;;;;;;23.73;74.58;99858.84;5033665;28;20068;-72
2023/06/21 10:35:48;;;;;;;16.50;8.25;;;;;;;23.73;74.35;99857.00;5039429;28;20056;-71
2023/06/21 10:38:30;;;;;;;20.75;9.07;;;;;;;23.75;74.46;99863.16;5036085;28;20095;-71
2023/06/21 10:40:56;;;;;;;19.15;8.93;;;;;;;23.79;74.33;99869.19;5035515;28;20029;-70
2023/06/21 10:43:23;;;;;;;18.10;8.70;;;;;;;23.79;74.18;99870.06;5035483;28;20031;-71
2023/06/21 10:45:50;;;;;;;17.57;8.10;;;;;;;23.79;74.07;99870.06;5036137;28;20029;-71
2023/06/21 10:48:16;;;;;;;18.88;9.20;;;;;;;23.77;74.22;99871.09;5036020;28;20583;-71
2023/06/21 10:50:42;;;;;;;17.92;8.77;;;;;;;23.73;74.26;99870.44;5036668;28;20052;-71
2023/06/21 10:53:08;;;;;;;22.27;9.30;;;;;;;23.72;74.53;99871.41;5036177;28;20085;-71
2023/06/21 10:55:34;;;;;;;23.83;9.50;;;;;;;23.70;74.68;99854.50;5035917;28;20037;-72
2023/06/21 10:58:02;;;;;;;22.10;8.80;;;;;;;23.71;74.58;99856.25;5036243;28;20040;-71
2023/06/21 11:00:28;;;;;;;20.25;9.95;;;;;;;23.71;74.25;99860.78;5024719;28;20034;-71
2023/06/21 11:02:54;;;;;;;18.42;9.48;;;;;;;23.71;74.22;99858.94;5036093;28;20033;-71
2023/06/21 11:05:26;;;;;;;20.63;9.90;;;;;;;23.71;74.30;99850.00;5036529;28;20034;-71
2023/06/21 11:07:59;;;;;;;20.42;9.70;;;;;;;23.74;74.23;99845.28;5036234;28;20087;-71
2023/06/21 11:10:49;;;;;;;19.00;9.10;;;;;;;23.83;74.18;99845.66;5018553;28;20025;-71
2023/06/21 11:13:17;;;;;;;16.90;8.10;;;;;;;23.96;74.24;99851.06;5025346;28;20025;-71
2023/06/21 11:15:46;;;;;;;20.38;9.10;;;;;;;24.05;73.75;99858.53;5029436;28;20030;-71
2023/06/21 11:18:19;;;;;;;19.65;9.25;;;;;;;24.13;73.91;99861.59;5028359;28;20605;-71
2023/06/21 11:20:45;;;;;;;18.05;9.02;;;;;;;24.20;73.55;99872.78;5036605;28;20104;-71
2023/06/21 11:23:15;;;;;;;22.27;9.10;;;;;;;24.25;73.35;99876.06;5034141;28;20029;-71
2023/06/21 11:25:49;;;;;;;17.13;8.77;;;;;;;24.29;73.74;99882.06;5024534;28;20473;-71